createdAt,value
2023-01-29T00:01:56.724Z,83.57
2023-01-29T00:04:26.303Z,83.60
2023-01-29T00:06:54.188Z,83.58
2023-01-29T00:09:22.432Z,83.35
2023-01-29T00:11:50.222Z,83.44
2023-01-29T00:14:18.052Z,83.54
2023-01-29T00:16:45.955Z,83.55
2023-01-29T00:19:13.736Z,83.60
2023-01-29T00:21:43.189Z,83.94
2023-01-29T00:24:11.131Z,84.01
2023-01-29T00:26:39.256Z,84.17
2023-01-29T00:29:07.543Z,84.54
2023-01-29T00:31:35.697Z,84.43
2023-01-29T00:34:03.526Z,84.56
2023-01-29T00:36:31.367Z,84.94
2023-01-29T00:39:02.535Z,84.98
2023-01-29T00:41:49.834Z,85.13
2023-01-29T00:44:35.568Z,85.49
2023-01-29T00:47:04.190Z,85.88
2023-01-29T00:49:32.076Z,85.91
2023-01-29T00:52:26.039Z,86.28
2023-01-29T00:54:57.063Z,86.03
2023-01-29T00:57:26.756Z,86.53
2023-01-29T00:59:54.844Z,86.52
2023-01-29T01:02:40.815Z,86.68
2023-01-29T01:05:17.940Z,86.76
2023-01-29T01:07:46.437Z,86.53
2023-01-29T01:10:24.078Z,86.90
2023-01-29T01:12:56.077Z,86.75
2023-01-29T01:15:24.855Z,86.90
2023-01-29T01:17:54.633Z,87.10
2023-01-29T01:20:22.872Z,87.12
2023-01-29T01:22:52.376Z,87.04
2023-01-29T01:25:21.899Z,87.15
2023-01-29T01:27:53.833Z,86.98
2023-01-29T01:30:21.958Z,87.11
2023-01-29T01:32:49.924Z,87.18
2023-01-29T01:35:17.814Z,87.07
2023-01-29T01:37:45.650Z,87.36
2023-01-29T01:40:18.365Z,87.39
2023-01-29T01:42:49.817Z,87.41
2023-01-29T01:45:21.080Z,87.07
2023-01-29T01:47:52.578Z,87.06
2023-01-29T01:50:25.440Z,87.15
2023-01-29T01:52:56.665Z,86.77
2023-01-29T01:55:27.626Z,86.56
2023-01-29T01:58:01.532Z,86.54
2023-01-29T02:00:29.608Z,86.55
2023-01-29T02:03:14.847Z,86.65
2023-01-29T02:06:00.441Z,86.54
2023-01-29T02:08:54.254Z,86.82
2023-01-29T02:11:22.256Z,87.07
2023-01-29T02:13:53.688Z,86.90
2023-01-29T02:16:27.096Z,86.96
2023-01-29T02:18:57.050Z,86.96
2023-01-29T02:21:47.734Z,86.86
2023-01-29T02:24:54.470Z,86.98
2023-01-29T02:27:34.495Z,86.60
2023-01-29T02:30:10.561Z,86.36
2023-01-29T02:32:54.203Z,86.77
2023-01-29T02:35:31.916Z,86.96
2023-01-29T02:38:09.930Z,86.73
2023-01-29T02:40:44.064Z,86.67
2023-01-29T02:43:24.526Z,86.81
2023-01-29T02:46:02.318Z,86.65
2023-01-29T02:48:41.775Z,86.41
2023-01-29T02:51:14.745Z,86.51
2023-01-29T02:53:50.439Z,86.45
2023-01-29T02:56:22.689Z,86.26
2023-01-29T02:58:55.288Z,86.14
2023-01-29T03:01:31.140Z,86.13
2023-01-29T03:04:03.484Z,86.49
2023-01-29T03:06:36.317Z,86.25
2023-01-29T03:09:08.936Z,86.45
2023-01-29T03:11:41.380Z,86.13
2023-01-29T03:14:14.381Z,86.40
2023-01-29T03:16:48.657Z,86.34
2023-01-29T03:19:20.360Z,86.40
2023-01-29T03:21:51.351Z,86.35
2023-01-29T03:24:39.754Z,86.35
2023-01-29T03:27:29.334Z,86.60
2023-01-29T03:30:17.446Z,86.68
2023-01-29T03:32:56.509Z,86.92
2023-01-29T03:35:35.437Z,86.96
2023-01-29T03:38:07.423Z,86.98
2023-01-29T03:40:41.255Z,87.19
2023-01-29T03:43:15.007Z,87.64
2023-01-29T03:45:55.357Z,87.71
2023-01-29T03:48:31.957Z,87.65
2023-01-29T03:51:09.027Z,87.87
2023-01-29T03:53:44.246Z,88.25
2023-01-29T03:56:22.046Z,88.14
2023-01-29T03:58:56.223Z,88.36
2023-01-29T04:01:34.564Z,88.19
2023-01-29T04:04:12.686Z,88.50
2023-01-29T04:06:45.047Z,88.09
2023-01-29T04:09:22.130Z,88.39
2023-01-29T04:11:54.265Z,88.42
2023-01-29T04:14:22.419Z,88.26
2023-01-29T04:16:55.332Z,88.23
2023-01-29T04:19:32.459Z,88.38
2023-01-29T04:22:06.350Z,88.25
2023-01-29T04:24:35.391Z,87.94
2023-01-29T04:27:22.332Z,88.14
2023-01-29T04:30:04.156Z,88.01
2023-01-29T04:32:50.289Z,88.24
2023-01-29T04:35:31.664Z,88.29
2023-01-29T04:38:10.166Z,88.10
2023-01-29T04:40:47.440Z,88.10
2023-01-29T04:43:17.277Z,87.75
2023-01-29T04:45:54.375Z,87.64
2023-01-29T04:48:27.542Z,87.96
2023-01-29T04:51:03.185Z,87.92
2023-01-29T04:53:40.435Z,87.97
2023-01-29T04:56:11.124Z,87.76
2023-01-29T04:58:44.585Z,87.67
2023-01-29T05:01:15.341Z,87.33
2023-01-29T05:03:47.846Z,87.38
2023-01-29T05:06:17.489Z,87.08
2023-01-29T05:08:45.918Z,87.05
2023-01-29T05:11:14.301Z,87.11
2023-01-29T05:13:44.102Z,87.38
2023-01-29T05:16:18.025Z,87.17
2023-01-29T05:18:46.120Z,87.15
2023-01-29T05:21:14.109Z,87.19
2023-01-29T05:23:53.091Z,87.27
2023-01-29T05:26:39.551Z,87.25
2023-01-29T05:29:07.378Z,87.30
2023-01-29T05:31:35.172Z,87.11
2023-01-29T05:34:02.964Z,87.29
2023-01-29T05:36:30.760Z,86.94
2023-01-29T05:38:59.969Z,86.96
2023-01-29T05:41:27.717Z,87.27
2023-01-29T05:43:55.493Z,87.00
2023-01-29T05:46:23.916Z,87.06
2023-01-29T05:48:53.345Z,86.80
2023-01-29T05:51:21.134Z,86.90
2023-01-29T05:53:48.917Z,86.85
2023-01-29T05:56:18.065Z,86.79
2023-01-29T05:58:45.949Z,86.85
2023-01-29T06:01:16.342Z,86.91
2023-01-29T06:03:44.444Z,87.06
2023-01-29T06:06:13.176Z,86.72
2023-01-29T06:08:40.996Z,86.92
2023-01-29T06:11:10.434Z,87.01
2023-01-29T06:13:40.035Z,87.06
2023-01-29T06:16:09.124Z,86.72
2023-01-29T06:18:37.840Z,86.78
2023-01-29T06:21:07.564Z,86.68
2023-01-29T06:23:35.380Z,86.45
2023-01-29T06:26:04.360Z,86.71
2023-01-29T06:28:32.245Z,86.79
2023-01-29T06:31:21.081Z,86.56
2023-01-29T06:33:50.566Z,86.65
2023-01-29T06:36:18.370Z,86.49
2023-01-29T06:38:47.211Z,86.56
2023-01-29T06:41:18.342Z,86.50
2023-01-29T06:43:46.518Z,86.33
2023-01-29T06:46:15.861Z,86.30
2023-01-29T06:48:43.850Z,86.40
2023-01-29T06:51:12.093Z,86.06
2023-01-29T06:53:40.960Z,86.23
2023-01-29T06:56:09.504Z,86.25
2023-01-29T06:58:38.080Z,86.09
2023-01-29T07:01:07.507Z,85.85
2023-01-29T07:03:36.904Z,85.94
2023-01-29T07:06:05.483Z,85.79
2023-01-29T07:08:33.242Z,85.81
2023-01-29T07:11:02.386Z,85.62
2023-01-29T07:13:30.524Z,85.54
2023-01-29T07:16:00.362Z,85.50
2023-01-29T07:18:28.234Z,85.61
2023-01-29T07:20:58.275Z,85.43
2023-01-29T07:23:26.252Z,85.31
2023-01-29T07:25:54.049Z,85.66
2023-01-29T07:28:21.970Z,85.75
2023-01-29T07:30:49.737Z,85.83
2023-01-29T07:33:17.503Z,85.91
2023-01-29T07:35:45.260Z,85.98
2023-01-29T07:38:14.551Z,85.92
2023-01-29T07:40:42.314Z,85.92
2023-01-29T07:43:11.548Z,86.02
2023-01-29T07:45:41.013Z,86.21
2023-01-29T07:48:12.699Z,86.21
2023-01-29T07:50:41.475Z,85.87
2023-01-29T07:53:15.832Z,85.80
2023-01-29T07:55:46.060Z,85.83
2023-01-29T07:58:14.054Z,85.73
2023-01-29T08:00:41.869Z,85.51
2023-01-29T08:03:13.211Z,85.66
2023-01-29T08:05:40.818Z,85.68
2023-01-29T08:08:08.753Z,85.50
2023-01-29T08:10:39.160Z,85.72
2023-01-29T08:13:08.496Z,85.48
2023-01-29T08:15:38.772Z,85.39
2023-01-29T08:18:07.351Z,85.49
2023-01-29T08:20:35.258Z,85.02
2023-01-29T08:23:04.579Z,85.30
2023-01-29T08:25:32.826Z,85.25
2023-01-29T08:28:02.738Z,84.97
2023-01-29T08:30:32.658Z,84.99
2023-01-29T08:33:00.684Z,84.63
2023-01-29T08:35:28.588Z,84.90
2023-01-29T08:37:56.767Z,84.15
2023-01-29T08:40:24.694Z,84.64
2023-01-29T08:42:52.481Z,84.20
2023-01-29T08:45:21.878Z,84.25
2023-01-29T08:47:50.990Z,84.18
2023-01-29T08:50:19.724Z,84.16
2023-01-29T08:52:47.728Z,83.58
2023-01-29T08:55:15.912Z,83.76
2023-01-29T08:57:43.807Z,83.73
2023-01-29T09:00:12.779Z,83.66
2023-01-29T09:02:41.975Z,83.23
2023-01-29T09:05:11.156Z,83.19
2023-01-29T09:07:39.007Z,83.18
2023-01-29T09:10:08.104Z,83.20
2023-01-29T09:12:35.913Z,82.71
2023-01-29T09:15:03.933Z,82.64
2023-01-29T09:17:31.689Z,82.75
2023-01-29T09:20:00.818Z,82.57
2023-01-29T09:22:29.448Z,82.35
2023-01-29T09:24:57.217Z,82.13
2023-01-29T09:27:25.130Z,82.15
2023-01-29T09:29:52.934Z,81.98
2023-01-29T09:32:49.844Z,81.84
2023-01-29T09:35:10.614Z,81.63
2023-01-29T09:37:38.454Z,81.70
2023-01-29T09:40:07.515Z,81.53
2023-01-29T09:42:41.970Z,81.46
2023-01-29T09:45:16.728Z,81.39
2023-01-29T09:47:45.247Z,81.25
2023-01-29T09:50:20.689Z,81.48
2023-01-29T09:52:53.073Z,81.40
2023-01-29T09:55:23.896Z,81.02
2023-01-29T09:57:54.449Z,81.18
2023-01-29T10:00:25.774Z,81.18
2023-01-29T10:03:18.588Z,80.88
2023-01-29T10:05:58.446Z,80.94
2023-01-29T10:09:03.633Z,80.76
2023-01-29T10:11:43.466Z,80.59
2023-01-29T10:14:19.812Z,80.52
2023-01-29T10:17:04.155Z,80.46
2023-01-29T10:19:46.234Z,80.76
2023-01-29T10:22:41.934Z,80.59
2023-01-29T10:25:12.837Z,80.56
2023-01-29T10:27:44.474Z,80.44
2023-01-29T10:30:31.726Z,80.73
2023-01-29T10:33:03.389Z,80.83
2023-01-29T10:35:35.478Z,80.92
2023-01-29T10:38:24.706Z,80.81
2023-01-29T10:40:55.986Z,80.87
2023-01-29T10:43:33.733Z,80.79
2023-01-29T10:46:11.941Z,80.79
2023-01-29T10:48:51.539Z,80.80
2023-01-29T10:51:32.714Z,80.81
2023-01-29T10:54:17.349Z,80.85
2023-01-29T10:56:58.602Z,80.69
2023-01-29T10:59:40.658Z,80.53
2023-01-29T11:02:18.231Z,80.71
2023-01-29T11:04:46.713Z,80.41
2023-01-29T11:07:17.905Z,80.80
2023-01-29T11:09:54.653Z,80.72
2023-01-29T11:12:27.237Z,80.91
2023-01-29T11:15:00.122Z,80.57
2023-01-29T11:17:28.440Z,80.16
2023-01-29T11:19:56.626Z,80.42
2023-01-29T11:22:25.315Z,80.42
2023-01-29T11:27:48.043Z,80.21
2023-01-29T11:30:20.764Z,80.48
2023-01-29T11:32:52.867Z,80.32
2023-01-29T11:35:26.110Z,80.48
2023-01-29T11:37:53.873Z,80.44
2023-01-29T11:40:37.627Z,80.65
2023-01-29T11:43:37.612Z,80.79
2023-01-29T11:46:08.061Z,80.45
2023-01-29T11:48:43.456Z,80.58
2023-01-29T11:51:13.567Z,80.77
2023-01-29T11:53:44.493Z,80.66
2023-01-29T11:56:23.434Z,80.85
2023-01-29T11:58:55.462Z,81.07
2023-01-29T12:01:33.240Z,81.29
2023-01-29T12:04:02.055Z,81.33
2023-01-29T12:06:35.231Z,81.69
2023-01-29T12:09:10.697Z,81.67
2023-01-29T12:11:38.556Z,81.78
2023-01-29T12:14:25.820Z,82.10
2023-01-29T12:16:57.662Z,82.00
2023-01-29T12:19:32.378Z,82.54
2023-01-29T12:22:05.479Z,82.82
2023-01-29T12:24:36.611Z,82.97
2023-01-29T12:27:13.923Z,83.05
2023-01-29T12:29:47.732Z,82.98
2023-01-29T12:32:27.599Z,82.97
2023-01-29T12:35:02.840Z,83.55
2023-01-29T12:37:46.169Z,83.32
2023-01-29T12:40:16.366Z,83.27
2023-01-29T12:42:49.023Z,83.13
2023-01-29T12:45:21.892Z,83.37
2023-01-29T12:47:52.939Z,82.96
2023-01-29T12:50:25.100Z,83.05
2023-01-29T12:52:57.347Z,82.90
2023-01-29T12:55:29.025Z,82.88
2023-01-29T12:57:59.573Z,82.92
2023-01-29T13:00:33.212Z,83.47
2023-01-29T13:03:08.085Z,83.35
2023-01-29T13:05:44.194Z,83.46
2023-01-29T13:08:18.586Z,83.43
2023-01-29T13:10:50.524Z,83.67
2023-01-29T13:13:27.631Z,83.92
2023-01-29T13:15:59.994Z,83.77
2023-01-29T13:18:44.899Z,83.99
2023-01-29T13:21:16.317Z,84.18
2023-01-29T13:23:47.995Z,84.03
2023-01-29T13:26:19.750Z,84.07
2023-01-29T13:28:48.443Z,83.97
2023-01-29T13:31:28.298Z,83.85
2023-01-29T13:34:03.697Z,83.60
2023-01-29T13:36:32.721Z,83.64
2023-01-29T13:39:04.444Z,83.90
2023-01-29T13:41:35.645Z,84.03
2023-01-29T13:44:04.226Z,83.86
2023-01-29T13:46:33.767Z,83.70
2023-01-29T13:49:04.940Z,83.60
2023-01-29T13:51:37.373Z,83.33
2023-01-29T13:54:09.759Z,83.31
2023-01-29T13:56:48.970Z,83.30
2023-01-29T13:59:25.721Z,83.39
2023-01-29T14:02:21.808Z,83.46
2023-01-29T14:04:49.676Z,83.50
2023-01-29T14:07:41.121Z,83.55
2023-01-29T14:10:18.155Z,83.70
2023-01-29T14:12:51.847Z,83.68
2023-01-29T14:15:23.346Z,83.89
2023-01-29T14:18:15.776Z,84.36
2023-01-29T14:20:54.085Z,84.04
2023-01-29T14:23:29.951Z,83.92
2023-01-29T14:25:59.747Z,84.07
2023-01-29T14:28:30.651Z,84.10
2023-01-29T14:30:58.888Z,84.27
2023-01-29T14:33:34.213Z,84.23
2023-01-29T14:36:06.457Z,84.36
2023-01-29T14:38:35.318Z,84.54
2023-01-29T14:41:13.826Z,84.41
2023-01-29T14:43:41.641Z,84.34
2023-01-29T14:46:43.442Z,84.34
2023-01-29T14:49:12.834Z,84.94
2023-01-29T14:51:45.371Z,84.55
2023-01-29T14:54:24.147Z,84.59
2023-01-29T14:56:59.489Z,84.56
2023-01-29T14:59:33.433Z,84.55
2023-01-29T15:02:06.266Z,84.55
2023-01-29T15:04:45.302Z,84.49
2023-01-29T15:07:24.227Z,84.55
2023-01-29T15:10:07.910Z,84.67
2023-01-29T15:12:49.467Z,84.70
2023-01-29T15:15:22.631Z,84.63
2023-01-29T15:17:58.237Z,84.60
2023-01-29T15:20:33.269Z,84.71
2023-01-29T15:23:03.133Z,84.72
2023-01-29T15:25:36.927Z,85.03
2023-01-29T15:28:10.166Z,84.46
2023-01-29T15:30:38.984Z,84.97
2023-01-29T15:33:10.600Z,84.98
2023-01-29T15:35:41.607Z,85.29
2023-01-29T15:38:17.553Z,85.23
2023-01-29T15:40:53.772Z,85.32
2023-01-29T15:43:24.047Z,85.34
2023-01-29T15:45:53.069Z,85.35
2023-01-29T15:48:24.555Z,85.56
2023-01-29T15:50:55.695Z,85.58
2023-01-29T15:53:29.904Z,85.86
2023-01-29T15:56:00.020Z,85.96
2023-01-29T15:58:31.800Z,85.99
2023-01-29T16:01:02.337Z,86.17
2023-01-29T16:03:34.306Z,86.21
2023-01-29T16:06:03.839Z,86.85
2023-01-29T16:08:31.759Z,87.16
2023-01-29T16:11:01.434Z,87.29
2023-01-29T16:13:32.666Z,87.36
2023-01-29T16:16:02.007Z,87.68
2023-01-29T16:18:34.538Z,88.80
2023-01-29T16:21:09.012Z,90.38
2023-01-29T16:23:45.162Z,90.99
2023-01-29T16:26:17.832Z,91.55
2023-01-29T16:28:47.179Z,92.04
2023-01-29T16:31:23.295Z,92.29
2023-01-29T16:33:51.217Z,91.96
2023-01-29T16:36:23.874Z,92.06
2023-01-29T16:38:55.689Z,92.34
2023-01-29T16:41:32.013Z,92.85
2023-01-29T16:44:02.803Z,93.22
2023-01-29T16:46:36.335Z,94.15
2023-01-29T16:49:26.017Z,94.79
2023-01-29T16:51:56.412Z,95.66
2023-01-29T16:54:27.684Z,96.13
2023-01-29T16:57:00.105Z,96.35
2023-01-29T16:59:34.834Z,96.78
2023-01-29T17:02:03.523Z,96.84
2023-01-29T17:04:31.412Z,97.54
2023-01-29T17:07:03.456Z,97.81
2023-01-29T17:09:34.959Z,97.78
2023-01-29T17:12:06.085Z,98.03
2023-01-29T17:14:35.931Z,97.88
2023-01-29T17:17:06.105Z,98.09
2023-01-29T17:19:34.101Z,98.00
2023-01-29T17:22:07.693Z,97.64
2023-01-29T17:24:35.617Z,97.64
2023-01-29T17:27:03.436Z,96.97
2023-01-29T17:29:32.657Z,96.88
2023-01-29T17:32:00.557Z,96.47
2023-01-29T17:34:28.442Z,96.13
2023-01-29T17:36:57.217Z,95.82
2023-01-29T17:39:26.655Z,95.77
2023-01-29T17:41:56.430Z,95.52
2023-01-29T17:44:26.072Z,94.79
2023-01-29T17:46:53.955Z,94.80
2023-01-29T17:49:24.388Z,94.56
2023-01-29T17:51:52.993Z,94.52
2023-01-29T17:54:21.084Z,93.93
2023-01-29T17:56:51.236Z,93.59
2023-01-29T17:59:20.920Z,93.47
2023-01-29T18:01:49.345Z,93.50
2023-01-29T18:04:17.517Z,93.35
2023-01-29T18:06:48.569Z,93.03
2023-01-29T18:09:18.806Z,92.62
2023-01-29T18:11:46.658Z,92.85
2023-01-29T18:14:15.939Z,92.98
2023-01-29T18:16:44.883Z,93.00
2023-01-29T18:19:15.827Z,92.89
2023-01-29T18:21:43.624Z,92.91
2023-01-29T18:24:11.417Z,92.65
2023-01-29T18:26:39.245Z,92.94
2023-01-29T18:29:07.100Z,92.84
2023-01-29T18:31:36.361Z,92.95
2023-01-29T18:34:04.205Z,93.09
2023-01-29T18:36:32.032Z,93.30
2023-01-29T18:38:59.873Z,93.27
2023-01-29T18:41:27.621Z,93.25
2023-01-29T18:43:55.381Z,93.10
2023-01-29T18:46:24.311Z,93.39
2023-01-29T18:48:53.570Z,93.13
2023-01-29T18:51:21.392Z,93.19
2023-01-29T18:53:51.745Z,93.10
2023-01-29T18:56:20.329Z,93.31
2023-01-29T18:58:52.439Z,93.39
2023-01-29T19:01:20.954Z,93.29
2023-01-29T19:03:48.822Z,93.54
2023-01-29T19:06:17.926Z,93.62
2023-01-29T19:08:47.319Z,93.53
2023-01-29T19:11:15.204Z,93.57
2023-01-29T19:13:43.100Z,93.98
2023-01-29T19:16:12.645Z,94.04
2023-01-29T19:18:40.757Z,94.14
2023-01-29T19:21:10.743Z,94.00
2023-01-29T19:23:40.696Z,93.86
2023-01-29T19:26:08.949Z,93.84
2023-01-29T19:28:37.135Z,94.16
2023-01-29T19:31:05.256Z,94.08
2023-01-29T19:33:33.134Z,94.23
2023-01-29T19:36:01.132Z,93.94
2023-01-29T19:38:33.287Z,94.18
2023-01-29T19:41:02.407Z,94.42
2023-01-29T19:43:31.490Z,94.19
2023-01-29T19:46:00.346Z,94.76
2023-01-29T19:48:28.351Z,94.62
2023-01-29T19:50:57.279Z,94.54
2023-01-29T19:53:25.617Z,94.60
2023-01-29T19:56:00.740Z,94.48
2023-01-29T19:58:30.935Z,94.71
2023-01-29T20:00:59.814Z,94.77
2023-01-29T20:03:28.904Z,94.59
2023-01-29T20:05:57.560Z,94.58
2023-01-29T20:08:25.435Z,94.77
2023-01-29T20:10:53.274Z,94.76
2023-01-29T20:13:21.311Z,94.85
2023-01-29T20:15:51.768Z,95.23
2023-01-29T20:18:20.352Z,95.09
2023-01-29T20:20:49.882Z,95.25
2023-01-29T20:23:35.238Z,95.32
2023-01-29T20:26:06.774Z,95.32
2023-01-29T20:28:36.660Z,95.42
2023-01-29T20:31:07.916Z,95.33
2023-01-29T20:33:38.268Z,95.36
2023-01-29T20:36:09.996Z,95.71
2023-01-29T20:38:38.252Z,95.58
2023-01-29T20:41:07.834Z,95.81
2023-01-29T20:43:36.217Z,95.94
2023-01-29T20:46:05.933Z,95.90
2023-01-29T20:48:34.321Z,96.17
2023-01-29T20:51:10.365Z,96.37
2023-01-29T20:53:38.656Z,96.43
2023-01-29T20:56:07.627Z,96.65
2023-01-29T20:58:35.579Z,96.62
2023-01-29T21:01:10.396Z,96.95
2023-01-29T21:03:38.759Z,97.16
2023-01-29T21:06:07.393Z,97.34
2023-01-29T21:08:35.370Z,97.36
2023-01-29T21:11:03.198Z,97.55
2023-01-29T21:13:31.060Z,97.84
2023-01-29T21:15:58.965Z,97.95
2023-01-29T21:18:28.165Z,98.04
2023-01-29T21:20:56.129Z,98.07
2023-01-29T21:23:23.991Z,98.18
2023-01-29T21:25:51.799Z,98.52
2023-01-29T21:28:19.597Z,98.59
2023-01-29T21:30:47.917Z,98.88
2023-01-29T21:33:15.790Z,99.28
2023-01-29T21:35:44.957Z,99.26
2023-01-29T21:38:12.741Z,99.69
2023-01-29T21:40:40.555Z,99.94
2023-01-29T21:43:13.416Z,100.00
2023-01-29T21:45:41.703Z,100.00
2023-01-29T21:48:12.390Z,100.00
2023-01-29T21:50:40.277Z,100.00
2023-01-29T21:53:09.432Z,100.00
2023-01-29T21:55:37.220Z,100.00
2023-01-29T21:58:05.002Z,100.00
2023-01-29T22:00:32.827Z,100.00
2023-01-29T22:03:00.729Z,100.00
2023-01-29T22:05:29.218Z,100.00
2023-01-29T22:07:57.229Z,100.00
2023-01-29T22:10:27.437Z,100.00
2023-01-29T22:12:55.453Z,100.00
2023-01-29T22:15:24.245Z,100.00
2023-01-29T22:17:52.261Z,100.00
2023-01-29T22:20:20.776Z,100.00
2023-01-29T22:22:48.645Z,100.00
2023-01-29T22:25:19.918Z,100.00
2023-01-29T22:27:48.956Z,100.00
2023-01-29T22:30:17.515Z,100.00
2023-01-29T22:32:45.433Z,100.00
2023-01-29T22:35:13.251Z,100.00
2023-01-29T22:37:41.012Z,100.00
2023-01-29T22:40:10.113Z,100.00
2023-01-29T22:42:37.844Z,100.00
2023-01-29T22:45:08.904Z,100.00
2023-01-29T22:47:36.668Z,100.00
2023-01-29T22:50:05.150Z,100.00
2023-01-29T22:52:38.577Z,100.00
2023-01-29T22:55:09.422Z,100.00
2023-01-29T22:57:37.700Z,100.00
2023-01-29T23:00:11.462Z,100.00
2023-01-29T23:02:39.313Z,100.00
2023-01-29T23:05:08.094Z,100.00
2023-01-29T23:07:35.851Z,100.00
2023-01-29T23:10:03.672Z,100.00
2023-01-29T23:12:31.481Z,100.00
2023-01-29T23:14:59.321Z,100.00
2023-01-29T23:17:28.484Z,100.00
2023-01-29T23:19:56.311Z,100.00
2023-01-29T23:22:24.105Z,100.00
2023-01-29T23:24:52.007Z,100.00
2023-01-29T23:27:18.847Z,100.00
2023-01-29T23:29:48.668Z,100.00
2023-01-29T23:32:18.192Z,100.00
2023-01-29T23:34:47.488Z,100.00
2023-01-29T23:37:15.374Z,100.00
2023-01-29T23:39:43.198Z,100.00
2023-01-29T23:42:11.008Z,100.00
2023-01-29T23:44:40.191Z,100.00
2023-01-29T23:47:08.223Z,100.00
2023-01-29T23:49:36.346Z,100.00
2023-01-29T23:52:05.730Z,100.00
2023-01-29T23:54:33.539Z,100.00
2023-01-29T23:57:01.323Z,100.00
2023-01-29T23:59:29.231Z,100.00
